sensor_id;sensor_type;location;lat;lon;timestamp;P1;durP1;ratioP1;P2;durP2;ratioP2
3066;SDS011;1544;48.834;9.194;2023-02-07T00:00:38;5.90;;;5.30;;
3066;SDS011;1544;48.834;9.194;2023-02-07T00:03:13;5.53;;;4.83;;
3066;SDS011;1544;48.834;9.194;2023-02-07T00:05:48;6.73;;;5.30;;
3066;SDS011;1544;48.834;9.194;2023-02-07T00:08:23;6.70;;;4.83;;
3066;SDS011;1544;48.834;9.194;2023-02-07T00:11:02;6.47;;;5.73;;
3066;SDS011;1544;48.834;9.194;2023-02-07T00:13:38;7.37;;;5.23;;
3066;SDS011;1544;48.834;9.194;2023-02-07T00:16:13;7.00;;;5.50;;
3066;SDS011;1544;48.834;9.194;2023-02-07T00:18:49;11.30;;;5.97;;
3066;SDS011;1544;48.834;9.194;2023-02-07T00:21:25;7.00;;;5.43;;
3066;SDS011;1544;48.834;9.194;2023-02-07T00:24:02;7.57;;;5.90;;
3066;SDS011;1544;48.834;9.194;2023-02-07T00:26:37;7.77;;;6.70;;
3066;SDS011;1544;48.834;9.194;2023-02-07T00:29:12;7.43;;;5.90;;
3066;SDS011;1544;48.834;9.194;2023-02-07T00:31:47;9.67;;;6.40;;
3066;SDS011;1544;48.834;9.194;2023-02-07T00:34:22;9.17;;;6.33;;
3066;SDS011;1544;48.834;9.194;2023-02-07T00:36:57;8.40;;;6.20;;
3066;SDS011;1544;48.834;9.194;2023-02-07T00:39:33;5.77;;;5.27;;
3066;SDS011;1544;48.834;9.194;2023-02-07T00:42:08;8.63;;;5.80;;
3066;SDS011;1544;48.834;9.194;2023-02-07T00:44:43;7.10;;;5.43;;
3066;SDS011;1544;48.834;9.194;2023-02-07T00:47:18;11.00;;;6.50;;
3066;SDS011;1544;48.834;9.194;2023-02-07T00:49:53;9.23;;;5.83;;
3066;SDS011;1544;48.834;9.194;2023-02-07T00:52:28;7.93;;;6.60;;
3066;SDS011;1544;48.834;9.194;2023-02-07T00:55:03;7.28;;;6.35;;
3066;SDS011;1544;48.834;9.194;2023-02-07T00:57:38;10.65;;;6.70;;
3066;SDS011;1544;48.834;9.194;2023-02-07T01:00:13;6.80;;;5.73;;
3066;SDS011;1544;48.834;9.194;2023-02-07T01:02:48;9.87;;;7.03;;
3066;SDS011;1544;48.834;9.194;2023-02-07T01:05:23;9.97;;;7.80;;
3066;SDS011;1544;48.834;9.194;2023-02-07T01:07:59;9.48;;;6.68;;
3066;SDS011;1544;48.834;9.194;2023-02-07T01:10:37;12.90;;;7.82;;
3066;SDS011;1544;48.834;9.194;2023-02-07T01:13:16;11.70;;;7.80;;
3066;SDS011;1544;48.834;9.194;2023-02-07T01:15:51;9.23;;;6.63;;
3066;SDS011;1544;48.834;9.194;2023-02-07T01:18:26;10.35;;;7.95;;
3066;SDS011;1544;48.834;9.194;2023-02-07T01:21:01;12.47;;;8.10;;
3066;SDS011;1544;48.834;9.194;2023-02-07T01:23:48;8.75;;;6.55;;
3066;SDS011;1544;48.834;9.194;2023-02-07T01:26:24;11.90;;;8.73;;
3066;SDS011;1544;48.834;9.194;2023-02-07T01:29:00;11.88;;;8.35;;
3066;SDS011;1544;48.834;9.194;2023-02-07T01:31:35;10.73;;;8.30;;
3066;SDS011;1544;48.834;9.194;2023-02-07T01:34:11;11.17;;;8.27;;
3066;SDS011;1544;48.834;9.194;2023-02-07T01:36:47;11.80;;;8.80;;
3066;SDS011;1544;48.834;9.194;2023-02-07T01:39:22;11.52;;;7.80;;
3066;SDS011;1544;48.834;9.194;2023-02-07T01:41:57;14.68;;;9.57;;
3066;SDS011;1544;48.834;9.194;2023-02-07T01:47:12;14.63;;;10.00;;
3066;SDS011;1544;48.834;9.194;2023-02-07T01:49:52;10.93;;;8.03;;
3066;SDS011;1544;48.834;9.194;2023-02-07T01:52:31;12.25;;;8.75;;
3066;SDS011;1544;48.834;9.194;2023-02-07T01:55:15;15.90;;;10.35;;
3066;SDS011;1544;48.834;9.194;2023-02-07T01:57:56;15.63;;;10.32;;
3066;SDS011;1544;48.834;9.194;2023-02-07T02:00:32;15.00;;;10.15;;
3066;SDS011;1544;48.834;9.194;2023-02-07T02:03:08;13.00;;;10.17;;
3066;SDS011;1544;48.834;9.194;2023-02-07T02:05:43;13.30;;;9.70;;
3066;SDS011;1544;48.834;9.194;2023-02-07T02:08:21;12.35;;;9.43;;
3066;SDS011;1544;48.834;9.194;2023-02-07T02:23:38;11.90;;;9.73;;
3066;SDS011;1544;48.834;9.194;2023-02-07T02:32:54;15.60;;;10.75;;
3066;SDS011;1544;48.834;9.194;2023-02-07T02:36:27;14.40;;;9.82;;
3066;SDS011;1544;48.834;9.194;2023-02-07T02:44:48;16.63;;;11.30;;
3066;SDS011;1544;48.834;9.194;2023-02-07T02:47:33;13.07;;;9.85;;
3066;SDS011;1544;48.834;9.194;2023-02-07T02:50:11;14.15;;;11.63;;
3066;SDS011;1544;48.834;9.194;2023-02-07T02:52:52;18.50;;;12.15;;
3066;SDS011;1544;48.834;9.194;2023-02-07T03:04:31;15.68;;;11.52;;
3066;SDS011;1544;48.834;9.194;2023-02-07T03:16:40;16.50;;;11.65;;
3066;SDS011;1544;48.834;9.194;2023-02-07T03:19:42;19.42;;;12.38;;
3066;SDS011;1544;48.834;9.194;2023-02-07T03:22:24;17.55;;;11.98;;
3066;SDS011;1544;48.834;9.194;2023-02-07T03:25:02;19.73;;;11.95;;
3066;SDS011;1544;48.834;9.194;2023-02-07T03:27:39;17.30;;;12.30;;
3066;SDS011;1544;48.834;9.194;2023-02-07T03:30:17;21.10;;;12.98;;
3066;SDS011;1544;48.834;9.194;2023-02-07T03:32:55;19.98;;;13.80;;
3066;SDS011;1544;48.834;9.194;2023-02-07T03:38:51;19.42;;;12.55;;
3066;SDS011;1544;48.834;9.194;2023-02-07T03:41:30;18.88;;;13.48;;
3066;SDS011;1544;48.834;9.194;2023-02-07T03:44:21;18.33;;;12.77;;
3066;SDS011;1544;48.834;9.194;2023-02-07T03:46:59;20.00;;;13.45;;
3066;SDS011;1544;48.834;9.194;2023-02-07T03:49:35;19.42;;;12.60;;
3066;SDS011;1544;48.834;9.194;2023-02-07T03:52:10;18.65;;;12.35;;
3066;SDS011;1544;48.834;9.194;2023-02-07T03:54:45;20.55;;;12.70;;
3066;SDS011;1544;48.834;9.194;2023-02-07T03:57:20;18.02;;;12.85;;
3066;SDS011;1544;48.834;9.194;2023-02-07T03:59:55;20.33;;;13.82;;
3066;SDS011;1544;48.834;9.194;2023-02-07T04:02:30;18.67;;;12.40;;
3066;SDS011;1544;48.834;9.194;2023-02-07T04:05:05;17.40;;;12.20;;
3066;SDS011;1544;48.834;9.194;2023-02-07T04:07:41;19.38;;;13.65;;
3066;SDS011;1544;48.834;9.194;2023-02-07T04:10:16;19.88;;;12.43;;
3066;SDS011;1544;48.834;9.194;2023-02-07T04:12:51;18.65;;;12.60;;
3066;SDS011;1544;48.834;9.194;2023-02-07T04:15:26;16.65;;;13.43;;
3066;SDS011;1544;48.834;9.194;2023-02-07T04:18:01;18.35;;;13.32;;
3066;SDS011;1544;48.834;9.194;2023-02-07T04:20:36;18.67;;;13.02;;
3066;SDS011;1544;48.834;9.194;2023-02-07T04:23:11;19.67;;;12.85;;
3066;SDS011;1544;48.834;9.194;2023-02-07T04:25:47;15.15;;;11.65;;
3066;SDS011;1544;48.834;9.194;2023-02-07T04:28:22;16.58;;;13.10;;
3066;SDS011;1544;48.834;9.194;2023-02-07T04:30:57;15.18;;;11.75;;
3066;SDS011;1544;48.834;9.194;2023-02-07T04:33:32;16.98;;;12.60;;
3066;SDS011;1544;48.834;9.194;2023-02-07T04:36:07;22.40;;;13.48;;
3066;SDS011;1544;48.834;9.194;2023-02-07T04:38:42;19.95;;;12.65;;
3066;SDS011;1544;48.834;9.194;2023-02-07T04:41:17;17.05;;;12.48;;
3066;SDS011;1544;48.834;9.194;2023-02-07T04:43:53;18.85;;;13.32;;
3066;SDS011;1544;48.834;9.194;2023-02-07T04:46:28;17.05;;;12.18;;
3066;SDS011;1544;48.834;9.194;2023-02-07T04:49:03;18.48;;;13.40;;
3066;SDS011;1544;48.834;9.194;2023-02-07T04:51:38;19.30;;;13.02;;
3066;SDS011;1544;48.834;9.194;2023-02-07T04:54:13;16.38;;;12.50;;
3066;SDS011;1544;48.834;9.194;2023-02-07T04:56:48;17.88;;;12.75;;
3066;SDS011;1544;48.834;9.194;2023-02-07T04:59:22;21.50;;;13.43;;
3066;SDS011;1544;48.834;9.194;2023-02-07T05:01:57;18.92;;;11.93;;
3066;SDS011;1544;48.834;9.194;2023-02-07T05:04:33;23.17;;;13.93;;
3066;SDS011;1544;48.834;9.194;2023-02-07T05:07:08;17.92;;;13.27;;
3066;SDS011;1544;48.834;9.194;2023-02-07T05:09:43;18.58;;;12.60;;
3066;SDS011;1544;48.834;9.194;2023-02-07T05:12:18;18.75;;;11.75;;
3066;SDS011;1544;48.834;9.194;2023-02-07T05:14:53;15.02;;;11.60;;
3066;SDS011;1544;48.834;9.194;2023-02-07T05:17:28;16.98;;;11.65;;
3066;SDS011;1544;48.834;9.194;2023-02-07T05:20:04;18.60;;;12.90;;
3066;SDS011;1544;48.834;9.194;2023-02-07T05:22:40;18.70;;;11.98;;
3066;SDS011;1544;48.834;9.194;2023-02-07T05:25:15;17.90;;;12.90;;
3066;SDS011;1544;48.834;9.194;2023-02-07T05:27:50;19.13;;;12.82;;
3066;SDS011;1544;48.834;9.194;2023-02-07T05:30:26;17.58;;;12.73;;
3066;SDS011;1544;48.834;9.194;2023-02-07T05:33:01;23.15;;;13.23;;
3066;SDS011;1544;48.834;9.194;2023-02-07T05:35:40;23.02;;;13.45;;
3066;SDS011;1544;48.834;9.194;2023-02-07T05:38:18;22.65;;;13.48;;
3066;SDS011;1544;48.834;9.194;2023-02-07T05:40:55;17.35;;;12.52;;
3066;SDS011;1544;48.834;9.194;2023-02-07T05:43:30;16.00;;;12.25;;
3066;SDS011;1544;48.834;9.194;2023-02-07T05:46:05;19.33;;;12.63;;
3066;SDS011;1544;48.834;9.194;2023-02-07T05:48:40;20.10;;;12.40;;
3066;SDS011;1544;48.834;9.194;2023-02-07T05:51:15;16.63;;;11.63;;
3066;SDS011;1544;48.834;9.194;2023-02-07T05:53:50;17.25;;;12.32;;
3066;SDS011;1544;48.834;9.194;2023-02-07T05:56:25;19.10;;;12.27;;
3066;SDS011;1544;48.834;9.194;2023-02-07T05:59:00;18.55;;;11.80;;
3066;SDS011;1544;48.834;9.194;2023-02-07T06:01:35;19.35;;;12.77;;
3066;SDS011;1544;48.834;9.194;2023-02-07T06:04:10;19.90;;;12.38;;
3066;SDS011;1544;48.834;9.194;2023-02-07T06:06:45;17.80;;;12.30;;
3066;SDS011;1544;48.834;9.194;2023-02-07T06:09:20;16.60;;;12.27;;
3066;SDS011;1544;48.834;9.194;2023-02-07T06:11:56;17.95;;;11.75;;
3066;SDS011;1544;48.834;9.194;2023-02-07T06:14:30;19.83;;;13.63;;
3066;SDS011;1544;48.834;9.194;2023-02-07T06:17:05;22.27;;;13.25;;
3066;SDS011;1544;48.834;9.194;2023-02-07T06:19:41;19.77;;;12.38;;
3066;SDS011;1544;48.834;9.194;2023-02-07T06:22:16;18.02;;;12.90;;
3066;SDS011;1544;48.834;9.194;2023-02-07T06:24:51;17.83;;;11.93;;
3066;SDS011;1544;48.834;9.194;2023-02-07T06:27:26;17.38;;;13.32;;
3066;SDS011;1544;48.834;9.194;2023-02-07T06:30:07;22.77;;;14.00;;
3066;SDS011;1544;48.834;9.194;2023-02-07T06:32:44;19.08;;;13.05;;
3066;SDS011;1544;48.834;9.194;2023-02-07T06:35:19;18.27;;;12.48;;
3066;SDS011;1544;48.834;9.194;2023-02-07T06:37:54;17.92;;;12.20;;
3066;SDS011;1544;48.834;9.194;2023-02-07T06:40:29;16.23;;;11.85;;
3066;SDS011;1544;48.834;9.194;2023-02-07T06:43:04;20.40;;;12.98;;
3066;SDS011;1544;48.834;9.194;2023-02-07T06:45:42;18.60;;;12.32;;
3066;SDS011;1544;48.834;9.194;2023-02-07T06:48:17;21.20;;;12.35;;
3066;SDS011;1544;48.834;9.194;2023-02-07T06:50:52;21.63;;;13.48;;
3066;SDS011;1544;48.834;9.194;2023-02-07T06:53:27;16.75;;;10.88;;
3066;SDS011;1544;48.834;9.194;2023-02-07T06:56:03;23.02;;;12.95;;
3066;SDS011;1544;48.834;9.194;2023-02-07T06:58:38;20.77;;;13.15;;
3066;SDS011;1544;48.834;9.194;2023-02-07T07:01:13;17.05;;;12.82;;
3066;SDS011;1544;48.834;9.194;2023-02-07T07:03:53;20.50;;;13.27;;
3066;SDS011;1544;48.834;9.194;2023-02-07T07:06:28;21.15;;;12.30;;
3066;SDS011;1544;48.834;9.194;2023-02-07T07:09:03;17.15;;;12.15;;
3066;SDS011;1544;48.834;9.194;2023-02-07T07:11:38;16.77;;;12.07;;
3066;SDS011;1544;48.834;9.194;2023-02-07T07:14:16;16.52;;;11.23;;
3066;SDS011;1544;48.834;9.194;2023-02-07T07:16:51;18.98;;;11.32;;
3066;SDS011;1544;48.834;9.194;2023-02-07T07:19:30;15.85;;;10.90;;
3066;SDS011;1544;48.834;9.194;2023-02-07T07:22:05;16.73;;;10.98;;
3066;SDS011;1544;48.834;9.194;2023-02-07T07:24:40;12.18;;;9.13;;
3066;SDS011;1544;48.834;9.194;2023-02-07T07:27:16;14.48;;;10.43;;
3066;SDS011;1544;48.834;9.194;2023-02-07T07:29:51;13.25;;;10.02;;
3066;SDS011;1544;48.834;9.194;2023-02-07T07:32:26;19.05;;;11.32;;
3066;SDS011;1544;48.834;9.194;2023-02-07T07:35:21;16.13;;;9.68;;
3066;SDS011;1544;48.834;9.194;2023-02-07T07:37:56;15.32;;;9.20;;
3066;SDS011;1544;48.834;9.194;2023-02-07T07:40:31;14.80;;;9.88;;
3066;SDS011;1544;48.834;9.194;2023-02-07T07:43:06;13.95;;;9.45;;
3066;SDS011;1544;48.834;9.194;2023-02-07T07:45:53;16.70;;;11.32;;
3066;SDS011;1544;48.834;9.194;2023-02-07T07:48:31;17.35;;;11.02;;
3066;SDS011;1544;48.834;9.194;2023-02-07T07:51:06;15.50;;;11.32;;
3066;SDS011;1544;48.834;9.194;2023-02-07T07:53:42;21.42;;;11.57;;
3066;SDS011;1544;48.834;9.194;2023-02-07T07:56:17;14.48;;;10.65;;
3066;SDS011;1544;48.834;9.194;2023-02-07T07:58:51;15.93;;;10.07;;
3066;SDS011;1544;48.834;9.194;2023-02-07T08:01:26;15.35;;;9.75;;
3066;SDS011;1544;48.834;9.194;2023-02-07T08:04:02;18.23;;;12.90;;
3066;SDS011;1544;48.834;9.194;2023-02-07T08:06:37;20.25;;;12.60;;
3066;SDS011;1544;48.834;9.194;2023-02-07T08:09:12;14.65;;;10.48;;
3066;SDS011;1544;48.834;9.194;2023-02-07T08:11:47;14.20;;;9.93;;
3066;SDS011;1544;48.834;9.194;2023-02-07T08:14:22;14.73;;;9.82;;
3066;SDS011;1544;48.834;9.194;2023-02-07T08:16:57;15.32;;;9.82;;
3066;SDS011;1544;48.834;9.194;2023-02-07T08:19:32;12.63;;;8.90;;
3066;SDS011;1544;48.834;9.194;2023-02-07T08:22:07;14.82;;;9.77;;
3066;SDS011;1544;48.834;9.194;2023-02-07T08:24:42;13.88;;;9.38;;
3066;SDS011;1544;48.834;9.194;2023-02-07T08:27:17;13.80;;;10.02;;
3066;SDS011;1544;48.834;9.194;2023-02-07T08:29:52;13.38;;;9.60;;
3066;SDS011;1544;48.834;9.194;2023-02-07T08:32:27;13.48;;;9.40;;
3066;SDS011;1544;48.834;9.194;2023-02-07T08:35:02;14.18;;;9.65;;
3066;SDS011;1544;48.834;9.194;2023-02-07T08:37:39;12.68;;;9.60;;
3066;SDS011;1544;48.834;9.194;2023-02-07T08:40:14;13.82;;;9.52;;
3066;SDS011;1544;48.834;9.194;2023-02-07T08:42:50;13.82;;;9.70;;
3066;SDS011;1544;48.834;9.194;2023-02-07T08:45:25;13.60;;;8.00;;
3066;SDS011;1544;48.834;9.194;2023-02-07T08:48:00;11.85;;;8.45;;
3066;SDS011;1544;48.834;9.194;2023-02-07T08:50:35;11.80;;;9.45;;
3066;SDS011;1544;48.834;9.194;2023-02-07T08:53:11;11.95;;;8.63;;
3066;SDS011;1544;48.834;9.194;2023-02-07T08:55:46;10.48;;;8.90;;
3066;SDS011;1544;48.834;9.194;2023-02-07T08:58:21;13.25;;;8.52;;
3066;SDS011;1544;48.834;9.194;2023-02-07T09:00:56;10.80;;;7.93;;
3066;SDS011;1544;48.834;9.194;2023-02-07T09:03:32;12.00;;;8.75;;
3066;SDS011;1544;48.834;9.194;2023-02-07T09:06:07;11.35;;;8.05;;
3066;SDS011;1544;48.834;9.194;2023-02-07T09:08:42;11.95;;;9.25;;
3066;SDS011;1544;48.834;9.194;2023-02-07T09:11:17;11.95;;;8.70;;
3066;SDS011;1544;48.834;9.194;2023-02-07T09:13:52;11.57;;;7.85;;
3066;SDS011;1544;48.834;9.194;2023-02-07T09:16:27;11.30;;;8.30;;
3066;SDS011;1544;48.834;9.194;2023-02-07T09:19:03;10.45;;;7.10;;
3066;SDS011;1544;48.834;9.194;2023-02-07T09:21:37;12.15;;;9.32;;
3066;SDS011;1544;48.834;9.194;2023-02-07T09:24:12;12.25;;;8.88;;
3066;SDS011;1544;48.834;9.194;2023-02-07T09:26:48;14.50;;;9.27;;
3066;SDS011;1544;48.834;9.194;2023-02-07T09:29:23;11.82;;;8.68;;
3066;SDS011;1544;48.834;9.194;2023-02-07T09:31:58;10.27;;;8.00;;
3066;SDS011;1544;48.834;9.194;2023-02-07T09:34:34;12.13;;;8.77;;
3066;SDS011;1544;48.834;9.194;2023-02-07T09:37:09;13.48;;;8.82;;
3066;SDS011;1544;48.834;9.194;2023-02-07T09:39:44;12.90;;;9.05;;
3066;SDS011;1544;48.834;9.194;2023-02-07T09:42:23;14.25;;;9.00;;
3066;SDS011;1544;48.834;9.194;2023-02-07T09:45:17;12.35;;;9.27;;
3066;SDS011;1544;48.834;9.194;2023-02-07T09:48:02;12.70;;;8.68;;
3066;SDS011;1544;48.834;9.194;2023-02-07T09:50:53;12.20;;;9.50;;
3066;SDS011;1544;48.834;9.194;2023-02-07T09:53:40;13.07;;;9.70;;
3066;SDS011;1544;48.834;9.194;2023-02-07T09:56:23;11.63;;;8.55;;
3066;SDS011;1544;48.834;9.194;2023-02-07T10:02:00;10.75;;;8.65;;
3066;SDS011;1544;48.834;9.194;2023-02-07T10:04:49;11.15;;;8.13;;
3066;SDS011;1544;48.834;9.194;2023-02-07T10:07:29;14.73;;;10.23;;
3066;SDS011;1544;48.834;9.194;2023-02-07T10:10:12;11.57;;;8.90;;
3066;SDS011;1544;48.834;9.194;2023-02-07T10:19:02;11.07;;;8.60;;
3066;SDS011;1544;48.834;9.194;2023-02-07T10:22:23;12.10;;;9.47;;
3066;SDS011;1544;48.834;9.194;2023-02-07T10:25:10;9.23;;;8.33;;
3066;SDS011;1544;48.834;9.194;2023-02-07T10:30:59;15.77;;;10.90;;
3066;SDS011;1544;48.834;9.194;2023-02-07T10:33:49;13.27;;;9.90;;
3066;SDS011;1544;48.834;9.194;2023-02-07T10:36:32;12.13;;;9.20;;
3066;SDS011;1544;48.834;9.194;2023-02-07T10:42:13;13.33;;;9.23;;
3066;SDS011;1544;48.834;9.194;2023-02-07T10:44:50;11.40;;;9.60;;
3066;SDS011;1544;48.834;9.194;2023-02-07T10:47:25;11.57;;;9.40;;
3066;SDS011;1544;48.834;9.194;2023-02-07T10:50:00;9.97;;;8.10;;
3066;SDS011;1544;48.834;9.194;2023-02-07T10:52:47;16.30;;;9.93;;
3066;SDS011;1544;48.834;9.194;2023-02-07T10:55:33;10.90;;;9.37;;
3066;SDS011;1544;48.834;9.194;2023-02-07T10:58:23;10.20;;;8.93;;
3066;SDS011;1544;48.834;9.194;2023-02-07T11:00:58;10.60;;;9.50;;
3066;SDS011;1544;48.834;9.194;2023-02-07T11:03:33;10.07;;;8.83;;
3066;SDS011;1544;48.834;9.194;2023-02-07T11:06:12;11.07;;;8.67;;
3066;SDS011;1544;48.834;9.194;2023-02-07T11:08:50;8.83;;;7.40;;
3066;SDS011;1544;48.834;9.194;2023-02-07T11:11:56;10.10;;;7.60;;
3066;SDS011;1544;48.834;9.194;2023-02-07T11:14:32;8.93;;;8.03;;
3066;SDS011;1544;48.834;9.194;2023-02-07T11:17:12;8.00;;;7.30;;
3066;SDS011;1544;48.834;9.194;2023-02-07T11:19:54;10.50;;;8.13;;
3066;SDS011;1544;48.834;9.194;2023-02-07T11:22:30;11.47;;;9.00;;
3066;SDS011;1544;48.834;9.194;2023-02-07T11:25:05;11.93;;;9.13;;
3066;SDS011;1544;48.834;9.194;2023-02-07T11:27:41;9.63;;;8.00;;
3066;SDS011;1544;48.834;9.194;2023-02-07T11:30:17;10.47;;;9.40;;
3066;SDS011;1544;48.834;9.194;2023-02-07T11:32:59;10.17;;;9.17;;
3066;SDS011;1544;48.834;9.194;2023-02-07T11:35:38;9.20;;;8.30;;
3066;SDS011;1544;48.834;9.194;2023-02-07T11:38:15;12.60;;;9.27;;
3066;SDS011;1544;48.834;9.194;2023-02-07T11:40:51;9.10;;;8.20;;
3066;SDS011;1544;48.834;9.194;2023-02-07T11:43:33;9.10;;;8.20;;
3066;SDS011;1544;48.834;9.194;2023-02-07T11:46:08;9.53;;;8.43;;
3066;SDS011;1544;48.834;9.194;2023-02-07T11:48:45;11.83;;;8.27;;
3066;SDS011;1544;48.834;9.194;2023-02-07T11:51:23;10.20;;;8.23;;
3066;SDS011;1544;48.834;9.194;2023-02-07T11:53:59;10.90;;;8.57;;
3066;SDS011;1544;48.834;9.194;2023-02-07T11:56:39;9.70;;;8.40;;
3066;SDS011;1544;48.834;9.194;2023-02-07T11:59:20;9.30;;;8.37;;
3066;SDS011;1544;48.834;9.194;2023-02-07T12:05:07;10.17;;;8.97;;
3066;SDS011;1544;48.834;9.194;2023-02-07T12:08:01;10.00;;;9.10;;
3066;SDS011;1544;48.834;9.194;2023-02-07T12:10:46;10.50;;;8.30;;
3066;SDS011;1544;48.834;9.194;2023-02-07T12:13:29;11.07;;;9.10;;
3066;SDS011;1544;48.834;9.194;2023-02-07T12:16:15;13.03;;;9.33;;
3066;SDS011;1544;48.834;9.194;2023-02-07T12:19:15;11.87;;;9.27;;
3066;SDS011;1544;48.834;9.194;2023-02-07T12:24:47;10.03;;;9.03;;
3066;SDS011;1544;48.834;9.194;2023-02-07T12:27:30;9.30;;;8.40;;
3066;SDS011;1544;48.834;9.194;2023-02-07T12:30:29;8.33;;;7.53;;
3066;SDS011;1544;48.834;9.194;2023-02-07T12:33:18;8.93;;;8.03;;
3066;SDS011;1544;48.834;9.194;2023-02-07T12:36:08;11.47;;;9.20;;
3066;SDS011;1544;48.834;9.194;2023-02-07T12:38:55;8.87;;;8.10;;
3066;SDS011;1544;48.834;9.194;2023-02-07T12:41:44;9.40;;;8.50;;
3066;SDS011;1544;48.834;9.194;2023-02-07T12:44:34;11.00;;;8.70;;
3066;SDS011;1544;48.834;9.194;2023-02-07T12:47:22;13.07;;;8.97;;
3066;SDS011;1544;48.834;9.194;2023-02-07T12:50:36;9.87;;;8.67;;
3066;SDS011;1544;48.834;9.194;2023-02-07T12:56:41;8.00;;;7.20;;
3066;SDS011;1544;48.834;9.194;2023-02-07T13:11:15;10.33;;;7.33;;
3066;SDS011;1544;48.834;9.194;2023-02-07T13:14:35;8.27;;;7.47;;
3066;SDS011;1544;48.834;9.194;2023-02-07T13:17:48;8.80;;;8.00;;
3066;SDS011;1544;48.834;9.194;2023-02-07T13:24:00;11.90;;;8.20;;
3066;SDS011;1544;48.834;9.194;2023-02-07T13:26:38;8.87;;;8.07;;
3066;SDS011;1544;48.834;9.194;2023-02-07T13:29:22;7.57;;;6.90;;
3066;SDS011;1544;48.834;9.194;2023-02-07T13:31:59;8.40;;;7.33;;
3066;SDS011;1544;48.834;9.194;2023-02-07T13:34:46;8.17;;;7.37;;
3066;SDS011;1544;48.834;9.194;2023-02-07T13:37:31;8.73;;;7.60;;
3066;SDS011;1544;48.834;9.194;2023-02-07T13:49:54;8.20;;;6.90;;
3066;SDS011;1544;48.834;9.194;2023-02-07T13:55:45;8.37;;;6.47;;
3066;SDS011;1544;48.834;9.194;2023-02-07T14:01:28;6.27;;;5.70;;
3066;SDS011;1544;48.834;9.194;2023-02-07T14:04:10;6.27;;;5.70;;
3066;SDS011;1544;48.834;9.194;2023-02-07T14:09:32;6.67;;;5.97;;
3066;SDS011;1544;48.834;9.194;2023-02-07T14:12:19;8.33;;;6.07;;
3066;SDS011;1544;48.834;9.194;2023-02-07T14:18:09;5.37;;;4.97;;
3066;SDS011;1544;48.834;9.194;2023-02-07T14:21:23;7.73;;;6.93;;
3066;SDS011;1544;48.834;9.194;2023-02-07T14:24:04;10.43;;;7.87;;
3066;SDS011;1544;48.834;9.194;2023-02-07T14:26:56;7.10;;;6.40;;
3066;SDS011;1544;48.834;9.194;2023-02-07T14:29:37;5.43;;;4.50;;
3066;SDS011;1544;48.834;9.194;2023-02-07T14:35:00;6.00;;;5.00;;
3066;SDS011;1544;48.834;9.194;2023-02-07T14:41:12;5.30;;;4.80;;
3066;SDS011;1544;48.834;9.194;2023-02-07T14:43:50;6.40;;;5.80;;
3066;SDS011;1544;48.834;9.194;2023-02-07T14:46:46;6.90;;;6.20;;
3066;SDS011;1544;48.834;9.194;2023-02-07T14:49:33;5.50;;;5.10;;
3066;SDS011;1544;48.834;9.194;2023-02-07T14:55:16;5.83;;;5.30;;
3066;SDS011;1544;48.834;9.194;2023-02-07T15:00:36;7.57;;;6.83;;
3066;SDS011;1544;48.834;9.194;2023-02-07T15:03:26;7.00;;;6.40;;
3066;SDS011;1544;48.834;9.194;2023-02-07T15:06:13;7.10;;;5.93;;
3066;SDS011;1544;48.834;9.194;2023-02-07T15:09:10;6.57;;;5.80;;
3066;SDS011;1544;48.834;9.194;2023-02-07T15:12:06;6.67;;;5.93;;
3066;SDS011;1544;48.834;9.194;2023-02-07T15:15:00;5.60;;;5.10;;
3066;SDS011;1544;48.834;9.194;2023-02-07T15:17:35;6.07;;;5.47;;
3066;SDS011;1544;48.834;9.194;2023-02-07T15:20:19;5.63;;;5.13;;
3066;SDS011;1544;48.834;9.194;2023-02-07T15:23:02;5.87;;;5.37;;
3066;SDS011;1544;48.834;9.194;2023-02-07T15:25:42;6.10;;;5.50;;
3066;SDS011;1544;48.834;9.194;2023-02-07T15:28:25;5.37;;;4.80;;
3066;SDS011;1544;48.834;9.194;2023-02-07T15:33:59;5.60;;;5.17;;
3066;SDS011;1544;48.834;9.194;2023-02-07T15:36:36;7.23;;;6.53;;
3066;SDS011;1544;48.834;9.194;2023-02-07T15:39:16;6.23;;;5.40;;
3066;SDS011;1544;48.834;9.194;2023-02-07T15:41:56;6.40;;;5.23;;
3066;SDS011;1544;48.834;9.194;2023-02-07T15:44:32;5.23;;;4.80;;
3066;SDS011;1544;48.834;9.194;2023-02-07T15:53:00;7.40;;;5.37;;
3066;SDS011;1544;48.834;9.194;2023-02-07T15:58:20;5.47;;;5.00;;
3066;SDS011;1544;48.834;9.194;2023-02-07T16:01:14;4.70;;;4.07;;
3066;SDS011;1544;48.834;9.194;2023-02-07T16:04:01;7.50;;;3.73;;
3066;SDS011;1544;48.834;9.194;2023-02-07T16:06:37;4.30;;;3.83;;
3066;SDS011;1544;48.834;9.194;2023-02-07T16:09:41;5.27;;;4.07;;
3066;SDS011;1544;48.834;9.194;2023-02-07T16:15:28;4.13;;;3.83;;
3066;SDS011;1544;48.834;9.194;2023-02-07T16:18:05;7.57;;;4.97;;
3066;SDS011;1544;48.834;9.194;2023-02-07T16:21:15;4.30;;;3.70;;
3066;SDS011;1544;48.834;9.194;2023-02-07T16:24:04;5.50;;;4.70;;
3066;SDS011;1544;48.834;9.194;2023-02-07T16:26:45;3.90;;;3.50;;
3066;SDS011;1544;48.834;9.194;2023-02-07T16:29:22;4.30;;;3.90;;
3066;SDS011;1544;48.834;9.194;2023-02-07T16:31:59;4.13;;;3.70;;
3066;SDS011;1544;48.834;9.194;2023-02-07T16:34:34;5.50;;;3.83;;
3066;SDS011;1544;48.834;9.194;2023-02-07T16:37:15;4.73;;;3.73;;
3066;SDS011;1544;48.834;9.194;2023-02-07T16:39:50;4.10;;;3.70;;
3066;SDS011;1544;48.834;9.194;2023-02-07T16:42:26;7.40;;;5.00;;
3066;SDS011;1544;48.834;9.194;2023-02-07T16:45:01;7.73;;;3.93;;
3066;SDS011;1544;48.834;9.194;2023-02-07T16:47:36;4.27;;;3.90;;
3066;SDS011;1544;48.834;9.194;2023-02-07T16:50:29;9.40;;;5.60;;
3066;SDS011;1544;48.834;9.194;2023-02-07T16:53:04;4.60;;;3.87;;
3066;SDS011;1544;48.834;9.194;2023-02-07T16:55:39;4.30;;;3.90;;
3066;SDS011;1544;48.834;9.194;2023-02-07T16:58:20;3.50;;;3.20;;
3066;SDS011;1544;48.834;9.194;2023-02-07T17:01:00;5.23;;;4.83;;
3066;SDS011;1544;48.834;9.194;2023-02-07T17:03:36;4.53;;;4.10;;
3066;SDS011;1544;48.834;9.194;2023-02-07T17:06:18;5.77;;;3.87;;
3066;SDS011;1544;48.834;9.194;2023-02-07T17:08:55;4.43;;;3.60;;
3066;SDS011;1544;48.834;9.194;2023-02-07T17:11:30;5.53;;;4.20;;
3066;SDS011;1544;48.834;9.194;2023-02-07T17:14:05;4.00;;;3.60;;
3066;SDS011;1544;48.834;9.194;2023-02-07T17:16:40;4.90;;;3.97;;
3066;SDS011;1544;48.834;9.194;2023-02-07T17:19:19;4.33;;;3.90;;
3066;SDS011;1544;48.834;9.194;2023-02-07T17:21:56;5.60;;;5.00;;
3066;SDS011;1544;48.834;9.194;2023-02-07T17:24:31;4.77;;;4.23;;
3066;SDS011;1544;48.834;9.194;2023-02-07T17:27:08;5.10;;;4.40;;
3066;SDS011;1544;48.834;9.194;2023-02-07T17:29:44;6.10;;;4.60;;
3066;SDS011;1544;48.834;9.194;2023-02-07T17:32:19;5.70;;;4.73;;
3066;SDS011;1544;48.834;9.194;2023-02-07T17:34:55;6.50;;;4.70;;
3066;SDS011;1544;48.834;9.194;2023-02-07T17:37:30;5.37;;;4.70;;
3066;SDS011;1544;48.834;9.194;2023-02-07T17:43:11;5.83;;;5.23;;
3066;SDS011;1544;48.834;9.194;2023-02-07T17:45:46;6.03;;;4.70;;
3066;SDS011;1544;48.834;9.194;2023-02-07T17:48:21;6.30;;;4.60;;
3066;SDS011;1544;48.834;9.194;2023-02-07T17:50:56;5.93;;;5.00;;
3066;SDS011;1544;48.834;9.194;2023-02-07T17:53:31;6.00;;;4.00;;
3066;SDS011;1544;48.834;9.194;2023-02-07T17:56:06;7.50;;;5.57;;
3066;SDS011;1544;48.834;9.194;2023-02-07T17:58:45;6.77;;;5.63;;
3066;SDS011;1544;48.834;9.194;2023-02-07T18:01:21;7.20;;;4.60;;
3066;SDS011;1544;48.834;9.194;2023-02-07T18:03:57;7.60;;;5.40;;
3066;SDS011;1544;48.834;9.194;2023-02-07T18:06:32;6.40;;;5.00;;
3066;SDS011;1544;48.834;9.194;2023-02-07T18:09:17;10.27;;;5.87;;
3066;SDS011;1544;48.834;9.194;2023-02-07T18:11:52;10.27;;;6.03;;
3066;SDS011;1544;48.834;9.194;2023-02-07T18:14:27;9.20;;;6.77;;
3066;SDS011;1544;48.834;9.194;2023-02-07T18:17:04;8.20;;;5.70;;
3066;SDS011;1544;48.834;9.194;2023-02-07T18:19:39;6.30;;;5.70;;
3066;SDS011;1544;48.834;9.194;2023-02-07T18:22:14;7.20;;;5.43;;
3066;SDS011;1544;48.834;9.194;2023-02-07T18:24:49;7.03;;;6.10;;
3066;SDS011;1544;48.834;9.194;2023-02-07T18:27:24;8.17;;;5.80;;
3066;SDS011;1544;48.834;9.194;2023-02-07T18:29:59;10.30;;;6.30;;
3066;SDS011;1544;48.834;9.194;2023-02-07T18:32:34;7.53;;;5.80;;
3066;SDS011;1544;48.834;9.194;2023-02-07T18:35:10;8.13;;;5.67;;